Time;durP1;ratioP1;P1;durP2;ratioP2;P2;SDS_P1;SDS_P2;PMS_P1;PMS_P2;Temp;Humidity;BMP_temperature;BMP_pressure;BME280_temperature;BME280_humidity;BME280_pressure;Samples;Min_cycle;Max_cycle;Signal;HPM_P1;HPM_P2
2023/08/26 00:01:46;;;;;;;52.87;37.57;;;;;;;;;;5074780;28;20530;-63
2023/08/26 00:04:13;;;;;;;49.80;38.53;;;;;;;;;;5074350;28;20479;-63
2023/08/26 00:06:41;;;;;;;42.60;35.87;;;;;;;;;;5074851;28;20874;-63
2023/08/26 00:09:08;;;;;;;54.87;38.67;;;;;;;;;;5074878;28;20463;-63
2023/08/26 00:11:35;;;;;;;53.60;37.47;;;;;;;;;;5074293;28;20443;-63
2023/08/26 00:14:03;;;;;;;58.97;42.47;;;;;;;;;;5074033;28;21018;-63
2023/08/26 00:16:30;;;;;;;45.27;37.20;;;;;;;;;;5074798;28;20440;-63
2023/08/26 00:18:59;;;;;;;44.90;36.87;;;;;;;;;;5073318;28;20447;-63
2023/08/26 00:21:27;;;;;;;46.17;36.80;;;;;;;;;;5074372;28;20497;-63
2023/08/26 00:23:54;;;;;;;49.63;38.40;;;;;;;;;;5073876;28;20615;-63
2023/08/26 00:26:22;;;;;;;48.93;39.10;;;;;;;;;;5074877;28;20546;-63
2023/08/26 00:28:49;;;;;;;50.23;38.30;;;;;;;;;;5074227;28;20439;-63
2023/08/26 00:31:16;;;;;;;46.33;37.30;;;;;;;;;;5074229;28;20535;-63
2023/08/26 00:33:44;;;;;;;54.03;38.07;;;;;;;;;;5074627;28;20470;-63
2023/08/26 00:36:12;;;;;;;55.70;40.43;;;;;;;;;;5074260;28;20487;-64
2023/08/26 00:38:39;;;;;;;51.87;41.37;;;;;;;;;;5073984;28;20439;-63
2023/08/26 00:41:06;;;;;;;55.73;40.43;;;;;;;;;;5074055;28;20432;-65
2023/08/26 00:43:37;;;;;;;58.57;41.00;;;;;;;;;;5073849;28;20475;-64
2023/08/26 00:46:05;;;;;;;58.13;41.67;;;;;;;;;;5074290;28;20823;-63
2023/08/26 00:48:32;;;;;;;62.40;43.03;;;;;;;;;;5073703;28;21035;-66
2023/08/26 00:50:59;;;;;;;50.47;39.20;;;;;;;;;;5073831;28;20531;-64
2023/08/26 00:53:28;;;;;;;60.97;44.40;;;;;;;;;;5073785;28;20813;-63
2023/08/26 00:55:55;;;;;;;60.97;46.13;;;;;;;;;;5073273;28;20484;-67
2023/08/26 00:58:22;;;;;;;68.43;46.63;;;;;;;;;;5073453;28;20443;-63
2023/08/26 01:00:50;;;;;;;61.33;44.80;;;;;;;;;;5073689;28;20529;-64
2023/08/26 01:03:17;;;;;;;65.47;45.77;;;;;;;;;;5073441;28;20428;-63
2023/08/26 01:05:44;;;;;;;65.23;47.03;;;;;;;;;;5073202;28;20447;-63
2023/08/26 01:08:12;;;;;;;59.63;45.93;;;;;;;;;;5073375;28;20444;-63
2023/08/26 01:10:45;;;;;;;56.00;43.60;;;;;;;;;;5073525;28;20450;-63
2023/08/26 01:13:14;;;;;;;63.10;45.50;;;;;;;;;;5073346;28;20435;-63
2023/08/26 01:15:42;;;;;;;59.53;44.73;;;;;;;;;;5073494;28;20957;-63
2023/08/26 01:18:10;;;;;;;59.83;43.07;;;;;;;;;;5073421;28;20445;-63
2023/08/26 01:20:37;;;;;;;64.40;44.23;;;;;;;;;;5073102;28;20445;-63
2023/08/26 01:23:07;;;;;;;60.50;43.40;;;;;;;;;;5073798;28;20480;-63
2023/08/26 01:25:36;;;;;;;65.27;43.20;;;;;;;;;;5073531;28;20504;-63
2023/08/26 01:28:03;;;;;;;65.80;41.90;;;;;;;;;;5073389;28;20524;-63
2023/08/26 01:30:30;;;;;;;56.77;41.50;;;;;;;;;;5073255;28;20440;-63
2023/08/26 01:32:59;;;;;;;57.80;42.50;;;;;;;;;;5073489;28;20438;-63
2023/08/26 01:35:29;;;;;;;56.60;42.17;;;;;;;;;;5072896;28;20482;-63
2023/08/26 01:37:58;;;;;;;58.30;42.57;;;;;;;;;;5073285;28;20436;-63
2023/08/26 01:40:26;;;;;;;61.03;44.23;;;;;;;;;;5073347;28;20521;-63
2023/08/26 01:42:56;;;;;;;63.43;43.03;;;;;;;;;;5073384;28;20462;-63
2023/08/26 01:45:23;;;;;;;56.83;43.57;;;;;;;;;;5072811;28;20447;-63
2023/08/26 01:47:50;;;;;;;55.90;41.23;;;;;;;;;;5073633;28;20519;-63
2023/08/26 01:50:18;;;;;;;61.13;43.07;;;;;;;;;;5073130;28;20445;-63
2023/08/26 01:52:45;;;;;;;63.13;43.30;;;;;;;;;;5073211;28;20443;-63
2023/08/26 01:55:12;;;;;;;59.70;42.63;;;;;;;;;;5072691;28;20471;-62
2023/08/26 01:57:39;;;;;;;58.70;41.27;;;;;;;;;;5073443;28;20563;-62
2023/08/26 02:00:09;;;;;;;61.40;44.07;;;;;;;;;;5072988;28;20450;-63
2023/08/26 02:02:36;;;;;;;55.40;41.87;;;;;;;;;;5072629;28;20535;-64
2023/08/26 02:05:03;;;;;;;58.47;41.33;;;;;;;;;;5073266;28;20984;-63
2023/08/26 02:07:30;;;;;;;55.27;39.80;;;;;;;;;;5072967;28;20439;-62
2023/08/26 02:09:58;;;;;;;51.27;38.60;;;;;;;;;;5072561;28;20452;-63
2023/08/26 02:12:25;;;;;;;55.00;41.40;;;;;;;;;;5072602;28;20955;-63
2023/08/26 02:14:52;;;;;;;49.90;36.67;;;;;;;;;;5072449;28;20448;-63
2023/08/26 02:17:20;;;;;;;62.90;38.90;;;;;;;;;;5072833;28;20805;-62
2023/08/26 02:19:48;;;;;;;52.47;40.03;;;;;;;;;;5072882;28;20425;-64
2023/08/26 02:22:16;;;;;;;52.20;38.07;;;;;;;;;;5072376;28;20452;-63
2023/08/26 02:24:43;;;;;;;57.00;38.87;;;;;;;;;;5072996;28;20444;-63
2023/08/26 02:27:10;;;;;;;52.27;38.63;;;;;;;;;;5072636;28;20471;-63
2023/08/26 02:29:37;;;;;;;53.93;37.73;;;;;;;;;;5072457;28;20447;-63
2023/08/26 02:32:05;;;;;;;53.40;38.30;;;;;;;;;;5072361;28;20523;-63
2023/08/26 02:34:34;;;;;;;53.10;37.00;;;;;;;;;;5073118;28;20446;-62
2023/08/26 02:37:01;;;;;;;47.40;36.00;;;;;;;;;;5072511;28;20472;-63
2023/08/26 02:39:28;;;;;;;43.67;33.80;;;;;;;;;;5072621;28;20443;-63
2023/08/26 02:41:55;;;;;;;45.50;33.83;;;;;;;;;;5074325;28;20432;-63
2023/08/26 02:44:22;;;;;;;44.33;31.93;;;;;;;;;;5076210;28;20447;-63
2023/08/26 02:46:50;;;;;;;59.43;36.97;;;;;;;;;;5075868;28;20519;-63
2023/08/26 02:49:17;;;;;;;41.07;32.43;;;;;;;;;;5076486;28;20444;-63
2023/08/26 02:51:45;;;;;;;39.37;31.30;;;;;;;;;;5076055;28;20440;-63
2023/08/26 02:54:12;;;;;;;38.30;30.70;;;;;;;;;;5076658;28;20573;-62
2023/08/26 02:56:40;;;;;;;45.20;31.83;;;;;;;;;;5075869;28;20565;-63
2023/08/26 02:59:07;;;;;;;43.50;32.90;;;;;;;;;;5076295;28;20440;-63
2023/08/26 03:01:38;;;;;;;43.80;32.60;;;;;;;;;;5075905;28;20439;-65
2023/08/26 03:04:06;;;;;;;42.60;29.93;;;;;;;;;;5076011;28;20498;-62
2023/08/26 03:06:33;;;;;;;40.97;32.43;;;;;;;;;;5075447;28;20530;-63
2023/08/26 03:09:02;;;;;;;41.50;31.87;;;;;;;;;;5075837;28;20800;-63
2023/08/26 03:11:29;;;;;;;40.80;29.60;;;;;;;;;;5075855;28;20457;-63
2023/08/26 03:13:56;;;;;;;41.93;28.93;;;;;;;;;;5075685;28;20440;-63
2023/08/26 03:16:24;;;;;;;44.37;30.67;;;;;;;;;;5075208;28;20492;-63
2023/08/26 03:18:51;;;;;;;40.40;28.83;;;;;;;;;;5075320;28;20929;-63
2023/08/26 03:21:18;;;;;;;45.50;31.63;;;;;;;;;;5075610;28;20435;-63
2023/08/26 03:23:45;;;;;;;48.70;31.10;;;;;;;;;;5075906;28;20447;-63
2023/08/26 03:26:14;;;;;;;37.97;28.83;;;;;;;;;;5075412;28;20826;-63
2023/08/26 03:28:41;;;;;;;38.33;29.07;;;;;;;;;;5075124;28;20537;-63
2023/08/26 03:31:08;;;;;;;39.57;30.93;;;;;;;;;;5074969;28;20523;-63
2023/08/26 03:33:35;;;;;;;37.60;30.90;;;;;;;;;;5075550;28;20802;-63
2023/08/26 03:36:04;;;;;;;36.50;28.27;;;;;;;;;;5075158;28;20566;-63
2023/08/26 03:38:32;;;;;;;36.60;27.40;;;;;;;;;;5074895;28;20436;-63
2023/08/26 03:40:59;;;;;;;42.47;30.30;;;;;;;;;;5075433;28;20856;-63
2023/08/26 03:43:27;;;;;;;36.27;28.97;;;;;;;;;;5075129;28;20539;-63
2023/08/26 03:45:55;;;;;;;39.57;27.13;;;;;;;;;;5075126;28;20437;-63
2023/08/26 03:48:22;;;;;;;39.97;28.10;;;;;;;;;;5074693;28;20444;-63
2023/08/26 03:50:52;;;;;;;34.97;29.30;;;;;;;;;;5091761;28;20527;-63
2023/08/26 03:53:19;;;;;;;28.93;22.83;;;;;;;;;;5092817;28;20480;-63
2023/08/26 03:55:47;;;;;;;24.50;20.90;;;;;;;;;;5094273;28;20566;-63
2023/08/26 03:58:14;;;;;;;25.17;19.87;;;;;;;;;;5093547;28;20437;-63
2023/08/26 04:00:43;;;;;;;17.53;12.87;;;;;;;;;;5093890;28;20953;-62
2023/08/26 04:03:10;;;;;;;22.17;15.47;;;;;;;;;;5094386;28;20429;-62
2023/08/26 04:05:38;;;;;;;18.83;14.03;;;;;;;;;;5093565;28;20445;-63
2023/08/26 04:08:05;;;;;;;18.07;14.97;;;;;;;;;;5094239;28;20530;-62
2023/08/26 04:10:32;;;;;;;17.20;15.10;;;;;;;;;;5094761;28;20814;-62
2023/08/26 04:13:01;;;;;;;14.27;11.17;;;;;;;;;;5094167;28;20537;-62
2023/08/26 04:15:29;;;;;;;10.93;8.40;;;;;;;;;;5094191;28;20995;-62
2023/08/26 04:17:57;;;;;;;12.70;8.10;;;;;;;;;;5094609;28;20536;-62
2023/08/26 04:20:24;;;;;;;17.20;6.33;;;;;;;;;;5094584;28;20443;-62
2023/08/26 04:22:51;;;;;;;5.77;5.27;;;;;;;;;;5094214;28;20538;-62
2023/08/26 04:25:19;;;;;;;11.93;6.00;;;;;;;;;;5094590;28;20440;-62
2023/08/26 04:27:46;;;;;;;8.13;4.80;;;;;;;;;;5094222;28;20529;-62
2023/08/26 04:30:14;;;;;;;8.43;4.80;;;;;;;;;;5094263;28;20541;-62
2023/08/26 04:32:41;;;;;;;7.03;4.70;;;;;;;;;;5094392;28;20538;-62
2023/08/26 04:35:09;;;;;;;9.73;5.03;;;;;;;;;;5094649;28;20533;-62
2023/08/26 04:37:37;;;;;;;5.60;4.80;;;;;;;;;;5094305;28;20914;-62
2023/08/26 04:40:12;;;;;;;6.40;4.73;;;;;;;;;;5093588;28;20465;-63
2023/08/26 04:42:39;;;;;;;11.23;5.30;;;;;;;;;;5093109;28;20434;-62
2023/08/26 04:45:07;;;;;;;4.67;4.10;;;;;;;;;;5093661;28;20529;-62
2023/08/26 04:47:34;;;;;;;9.10;4.37;;;;;;;;;;5093641;28;20986;-62
2023/08/26 04:50:03;;;;;;;7.33;4.73;;;;;;;;;;5094298;28;20438;-62
2023/08/26 04:52:32;;;;;;;15.80;5.00;;;;;;;;;;5093732;28;20470;-62
2023/08/26 04:54:59;;;;;;;11.77;4.83;;;;;;;;;;5094164;28;20592;-62
2023/08/26 04:57:26;;;;;;;6.83;4.80;;;;;;;;;;5093669;28;20832;-62
2023/08/26 04:59:53;;;;;;;7.63;4.97;;;;;;;;;;5094074;28;20517;-62
2023/08/26 05:02:20;;;;;;;13.20;4.43;;;;;;;;;;5092817;28;20449;-63
2023/08/26 05:04:48;;;;;;;7.80;4.00;;;;;;;;;;5093450;28;20534;-64
2023/08/26 05:07:15;;;;;;;12.20;4.50;;;;;;;;;;5093623;28;20453;-63
2023/08/26 05:09:43;;;;;;;6.60;4.53;;;;;;;;;;5093375;28;20450;-63
2023/08/26 05:12:10;;;;;;;7.50;5.30;;;;;;;;;;5093539;28;20533;-63
2023/08/26 05:14:38;;;;;;;6.10;3.30;;;;;;;;;;5093271;28;20545;-63
2023/08/26 05:17:05;;;;;;;16.30;3.70;;;;;;;;;;5093126;28;20478;-63
2023/08/26 05:19:32;;;;;;;5.23;3.50;;;;;;;;;;5093268;28;20438;-63
2023/08/26 05:22:01;;;;;;;6.07;3.10;;;;;;;;;;5092673;28;20533;-64
2023/08/26 05:24:30;;;;;;;4.40;3.63;;;;;;;;;;5093134;28;20446;-63
2023/08/26 05:26:58;;;;;;;8.67;3.70;;;;;;;;;;5094072;28;20796;-62
2023/08/26 05:29:26;;;;;;;7.83;3.40;;;;;;;;;;5093282;28;20435;-62
2023/08/26 05:31:53;;;;;;;7.53;3.60;;;;;;;;;;5092853;28;20530;-62
2023/08/26 05:34:20;;;;;;;5.20;3.07;;;;;;;;;;5092849;28;20450;-62
2023/08/26 05:36:47;;;;;;;10.57;3.70;;;;;;;;;;5092918;28;21017;-63
2023/08/26 05:39:14;;;;;;;9.80;3.80;;;;;;;;;;5093390;28;20526;-62
2023/08/26 05:41:42;;;;;;;9.03;3.57;;;;;;;;;;5092866;28;20525;-63
2023/08/26 05:44:10;;;;;;;5.37;3.60;;;;;;;;;;5092710;28;20527;-62
2023/08/26 05:46:37;;;;;;;5.73;4.10;;;;;;;;;;5093256;28;20933;-62
2023/08/26 05:49:05;;;;;;;5.87;3.90;;;;;;;;;;5093146;28;20551;-63
2023/08/26 05:51:32;;;;;;;11.03;3.77;;;;;;;;;;5093227;28;20539;-62
2023/08/26 05:53:59;;;;;;;6.80;4.23;;;;;;;;;;5092861;28;21054;-62
2023/08/26 05:56:26;;;;;;;6.83;3.33;;;;;;;;;;5093111;28;20478;-62
2023/08/26 05:58:53;;;;;;;11.13;3.97;;;;;;;;;;5092889;28;20535;-62
2023/08/26 06:01:22;;;;;;;7.97;3.90;;;;;;;;;;5092192;28;20441;-62
2023/08/26 06:03:49;;;;;;;6.13;4.13;;;;;;;;;;5092321;28;20791;-62
2023/08/26 06:06:16;;;;;;;6.13;4.20;;;;;;;;;;5092976;28;20487;-62
2023/08/26 06:08:43;;;;;;;9.70;4.90;;;;;;;;;;5092685;28;20870;-62
2023/08/26 06:11:11;;;;;;;11.13;4.40;;;;;;;;;;5092759;28;20534;-62
2023/08/26 06:13:38;;;;;;;6.70;3.80;;;;;;;;;;5093027;28;20439;-63
2023/08/26 06:16:05;;;;;;;10.93;3.90;;;;;;;;;;5093229;28;20619;-63
2023/08/26 06:18:34;;;;;;;6.57;4.23;;;;;;;;;;5096394;28;20435;-63
2023/08/26 06:21:01;;;;;;;7.90;4.17;;;;;;;;;;5096017;28;20442;-62
2023/08/26 06:23:29;;;;;;;9.30;4.13;;;;;;;;;;5095489;28;20447;-62
2023/08/26 06:25:56;;;;;;;8.83;4.00;;;;;;;;;;5096545;28;20948;-62
2023/08/26 06:28:24;;;;;;;8.10;3.83;;;;;;;;;;5096392;28;20450;-62
2023/08/26 06:30:51;;;;;;;6.00;3.27;;;;;;;;;;5096523;28;20808;-62
2023/08/26 06:33:18;;;;;;;7.30;3.63;;;;;;;;;;5096061;28;20434;-62
2023/08/26 06:35:48;;;;;;;8.07;5.20;;;;;;;;;;5096021;28;20442;-62
2023/08/26 06:38:16;;;;;;;8.33;3.93;;;;;;;;;;5096370;28;20486;-62
2023/08/26 06:40:43;;;;;;;8.60;3.40;;;;;;;;;;5096083;28;20471;-70
2023/08/26 06:43:10;;;;;;;4.37;3.13;;;;;;;;;;5095607;28;20505;-63
2023/08/26 06:45:37;;;;;;;8.57;3.90;;;;;;;;;;5096124;28;20517;-64
2023/08/26 06:48:05;;;;;;;4.00;3.43;;;;;;;;;;5095426;28;20445;-64
2023/08/26 06:50:32;;;;;;;7.63;3.53;;;;;;;;;;5096171;28;20450;-64
2023/08/26 06:53:00;;;;;;;6.40;3.40;;;;;;;;;;5096300;28;22192;-64
2023/08/26 06:55:28;;;;;;;14.57;4.07;;;;;;;;;;5096212;28;20445;-64
2023/08/26 06:57:55;;;;;;;9.73;4.00;;;;;;;;;;5095777;28;21001;-64
2023/08/26 07:00:22;;;;;;;9.50;3.87;;;;;;;;;;5095902;28;20482;-64
2023/08/26 07:02:49;;;;;;;6.30;3.90;;;;;;;;;;5095477;28;20449;-64
2023/08/26 07:05:16;;;;;;;6.63;3.50;;;;;;;;;;5095615;28;20439;-64
2023/08/26 07:07:44;;;;;;;5.73;3.93;;;;;;;;;;5095594;28;20498;-64
2023/08/26 07:10:12;;;;;;;7.90;2.93;;;;;;;;;;5095818;28;20449;-64
2023/08/26 07:12:40;;;;;;;6.40;3.13;;;;;;;;;;5095586;28;20523;-63
2023/08/26 07:15:07;;;;;;;11.57;3.93;;;;;;;;;;5095373;28;20441;-63
2023/08/26 07:17:35;;;;;;;7.40;3.27;;;;;;;;;;5095655;28;20526;-63
2023/08/26 07:20:02;;;;;;;5.73;3.07;;;;;;;;;;5095625;28;20496;-64
2023/08/26 07:22:29;;;;;;;10.50;2.90;;;;;;;;;;5095339;28;20450;-64
2023/08/26 07:24:56;;;;;;;7.73;3.00;;;;;;;;;;5095134;28;20442;-63
2023/08/26 07:27:25;;;;;;;8.80;3.33;;;;;;;;;;5095437;28;20528;-63
2023/08/26 07:29:52;;;;;;;8.00;2.90;;;;;;;;;;5095067;28;20537;-63
2023/08/26 07:32:19;;;;;;;7.67;3.17;;;;;;;;;;5095062;28;21003;-63
2023/08/26 07:34:47;;;;;;;8.80;3.30;;;;;;;;;;5095394;28;20514;-63
2023/08/26 07:37:14;;;;;;;12.53;3.70;;;;;;;;;;5095467;28;20478;-63
2023/08/26 07:39:41;;;;;;;8.00;3.37;;;;;;;;;;5094885;28;20529;-63
2023/08/26 07:42:08;;;;;;;6.97;2.97;;;;;;;;;;5095140;28;20539;-63
2023/08/26 07:44:37;;;;;;;5.70;3.07;;;;;;;;;;5094844;28;20451;-63
2023/08/26 07:47:04;;;;;;;4.00;2.90;;;;;;;;;;5094600;28;20527;-64
2023/08/26 07:49:31;;;;;;;6.13;3.10;;;;;;;;;;5095022;28;20869;-63
2023/08/26 07:51:58;;;;;;;6.70;2.97;;;;;;;;;;5074484;28;20443;-64
2023/08/26 07:54:26;;;;;;;7.67;3.60;;;;;;;;;;5074243;28;20566;-64
2023/08/26 07:56:53;;;;;;;3.10;2.80;;;;;;;;;;5074505;28;20483;-64
2023/08/26 07:59:20;;;;;;;4.80;2.93;;;;;;;;;;5075299;28;20435;-64
2023/08/26 08:01:49;;;;;;;6.90;3.20;;;;;;;;;;5074389;28;20448;-63
2023/08/26 08:04:16;;;;;;;5.33;2.60;;;;;;;;;;5074455;28;20526;-64
2023/08/26 08:06:43;;;;;;;7.00;2.70;;;;;;;;;;5074648;28;20433;-64
2023/08/26 08:09:11;;;;;;;10.20;3.20;;;;;;;;;;5074412;28;20528;-64
2023/08/26 08:11:38;;;;;;;3.67;2.80;;;;;;;;;;5074092;28;20439;-64
2023/08/26 08:14:05;;;;;;;6.63;3.40;;;;;;;;;;5074818;28;20533;-64
2023/08/26 08:16:33;;;;;;;5.13;3.70;;;;;;;;;;5074366;28;20433;-64
2023/08/26 08:19:01;;;;;;;5.47;3.50;;;;;;;;;;5074276;28;20605;-64
2023/08/26 08:21:28;;;;;;;4.33;3.40;;;;;;;;;;5074137;28;20801;-64
2023/08/26 08:23:55;;;;;;;3.90;3.53;;;;;;;;;;5073793;28;20448;-64
2023/08/26 08:26:23;;;;;;;6.93;3.67;;;;;;;;;;5073736;28;20528;-64
2023/08/26 08:28:50;;;;;;;7.53;3.53;;;;;;;;;;5073840;28;20944;-64
2023/08/26 08:31:17;;;;;;;7.13;3.30;;;;;;;;;;5074264;28;20445;-64
2023/08/26 08:33:44;;;;;;;7.70;4.23;;;;;;;;;;5073974;28;20436;-64
2023/08/26 08:36:13;;;;;;;4.70;3.60;;;;;;;;;;5073525;28;20993;-64
2023/08/26 08:38:40;;;;;;;3.47;3.00;;;;;;;;;;5073705;28;20477;-64
2023/08/26 08:41:07;;;;;;;5.10;3.47;;;;;;;;;;5073729;28;20530;-65
2023/08/26 08:43:37;;;;;;;4.87;3.70;;;;;;;;;;5074151;28;20523;-64
2023/08/26 08:46:05;;;;;;;5.43;4.23;;;;;;;;;;5073422;28;20435;-64
2023/08/26 08:48:34;;;;;;;7.37;4.10;;;;;;;;;;5073463;28;20479;-64
2023/08/26 08:51:01;;;;;;;11.47;3.60;;;;;;;;;;5073649;28;20442;-64
2023/08/26 08:53:31;;;;;;;4.23;3.60;;;;;;;;;;5073538;28;20470;-64
2023/08/26 08:56:00;;;;;;;5.20;3.10;;;;;;;;;;5073287;28;20538;-64
2023/08/26 08:58:27;;;;;;;3.60;3.30;;;;;;;;;;5073388;28;20518;-64
2023/08/26 09:00:55;;;;;;;3.93;2.97;;;;;;;;;;5073500;28;20522;-64
2023/08/26 09:03:24;;;;;;;3.23;1.73;;;;;;;;;;5073507;28;20793;-64
2023/08/26 09:05:52;;;;;;;6.50;2.30;;;;;;;;;;5073361;28;20558;-64
2023/08/26 09:08:22;;;;;;;6.57;2.30;;;;;;;;;;5074008;28;20751;-65
2023/08/26 09:10:52;;;;;;;3.60;2.43;;;;;;;;;;5092639;28;20427;-64
2023/08/26 09:13:19;;;;;;;3.60;2.30;;;;;;;;;;5093129;28;20526;-64
2023/08/26 09:15:46;;;;;;;3.93;2.00;;;;;;;;;;5092904;28;20473;-64
2023/08/26 09:18:15;;;;;;;4.53;2.00;;;;;;;;;;5093419;28;20566;-64
2023/08/26 09:20:42;;;;;;;3.30;2.10;;;;;;;;;;5093333;28;20842;-64
2023/08/26 09:23:09;;;;;;;3.67;1.90;;;;;;;;;;5093487;28;20534;-64
2023/08/26 09:25:37;;;;;;;5.77;2.40;;;;;;;;;;5093113;28;20604;-64
2023/08/26 09:28:06;;;;;;;3.93;2.10;;;;;;;;;;5093270;28;20447;-64
2023/08/26 09:30:33;;;;;;;3.80;2.57;;;;;;;;;;5093152;28;20530;-64
2023/08/26 09:33:00;;;;;;;2.20;1.60;;;;;;;;;;5092914;28;20439;-63
2023/08/26 09:35:27;;;;;;;3.40;2.00;;;;;;;;;;5092521;28;20483;-64
2023/08/26 09:37:58;;;;;;;1.70;1.60;;;;;;;;;;5092806;28;21061;-63
2023/08/26 09:40:26;;;;;;;2.80;2.00;;;;;;;;;;5093132;28;20475;-65
2023/08/26 09:42:53;;;;;;;2.43;1.60;;;;;;;;;;5093006;28;20534;-65
2023/08/26 09:45:22;;;;;;;4.60;2.27;;;;;;;;;;5093139;28;20927;-64
2023/08/26 09:47:51;;;;;;;7.03;2.03;;;;;;;;;;5093037;28;20444;-65
2023/08/26 09:50:18;;;;;;;2.30;1.60;;;;;;;;;;5092694;28;20442;-65
2023/08/26 09:52:46;;;;;;;3.90;1.80;;;;;;;;;;5095853;28;20454;-66
2023/08/26 09:55:13;;;;;;;2.97;2.03;;;;;;;;;;5096487;28;20422;-64
2023/08/26 09:57:40;;;;;;;4.90;3.10;;;;;;;;;;5097076;28;20477;-63
2023/08/26 10:00:10;;;;;;;5.00;1.73;;;;;;;;;;5097096;28;20517;-63
2023/08/26 10:02:39;;;;;;;2.37;1.60;;;;;;;;;;5096555;28;20443;-64
2023/08/26 10:05:11;;;;;;;2.10;1.90;;;;;;;;;;5096737;28;20439;-63
2023/08/26 10:07:40;;;;;;;4.47;1.70;;;;;;;;;;5097141;28;20438;-64
2023/08/26 10:10:10;;;;;;;4.30;2.00;;;;;;;;;;5096861;28;20466;-65
2023/08/26 10:12:40;;;;;;;2.97;2.00;;;;;;;;;;5096533;28;20443;-65
2023/08/26 10:15:09;;;;;;;3.90;1.90;;;;;;;;;;5096320;28;20481;-65
2023/08/26 10:17:37;;;;;;;2.30;1.80;;;;;;;;;;5096703;28;20543;-65
2023/08/26 10:20:06;;;;;;;2.10;1.50;;;;;;;;;;5096396;28;20488;-65
2023/08/26 10:22:34;;;;;;;2.97;1.90;;;;;;;;;;5096053;28;20526;-64
2023/08/26 10:25:01;;;;;;;5.33;1.90;;;;;;;;;;5097073;28;20517;-64
2023/08/26 10:27:28;;;;;;;4.40;1.90;;;;;;;;;;5096203;28;20485;-64
2023/08/26 10:29:56;;;;;;;3.60;1.70;;;;;;;;;;5096285;28;20435;-64
2023/08/26 10:32:23;;;;;;;2.73;1.63;;;;;;;;;;5096575;28;20442;-64
2023/08/26 10:34:54;;;;;;;4.90;1.97;;;;;;;;;;5096257;28;20436;-65
2023/08/26 10:37:24;;;;;;;2.93;2.17;;;;;;;;;;5096357;28;20796;-64
2023/08/26 10:39:51;;;;;;;3.00;1.63;;;;;;;;;;5096131;28;20983;-65
2023/08/26 10:42:19;;;;;;;1.93;1.60;;;;;;;;;;5096370;28;20812;-64
2023/08/26 10:44:48;;;;;;;2.40;1.80;;;;;;;;;;5096206;28;20534;-65
2023/08/26 10:47:34;;;;;;;2.37;2.00;;;;;;;;;;5095858;28;20956;-65
2023/08/26 10:50:18;;;;;;;3.10;1.60;;;;;;;;;;5095932;28;20518;-65
2023/08/26 10:52:47;;;;;;;3.10;1.90;;;;;;;;;;5095886;28;20447;-65
2023/08/26 10:55:19;;;;;;;2.27;1.60;;;;;;;;;;5095562;28;20514;-65
2023/08/26 10:58:01;;;;;;;2.43;1.73;;;;;;;;;;5095996;28;20411;-64
2023/08/26 11:00:29;;;;;;;2.33;1.67;;;;;;;;;;5096161;28;20455;-65
2023/08/26 11:02:56;;;;;;;3.10;1.90;;;;;;;;;;5094913;28;20433;-65
2023/08/26 11:05:23;;;;;;;4.73;2.20;;;;;;;;;;5096089;28;20464;-65
2023/08/26 11:07:52;;;;;;;3.33;2.30;;;;;;;;;;5095936;28;20435;-65
2023/08/26 11:10:28;;;;;;;3.93;1.97;;;;;;;;;;5095693;28;20444;-64
2023/08/26 11:12:56;;;;;;;4.70;1.90;;;;;;;;;;5095212;28;20432;-64
2023/08/26 11:15:23;;;;;;;2.17;1.70;;;;;;;;;;5095032;28;20450;-65
2023/08/26 11:17:50;;;;;;;1.40;1.30;;;;;;;;;;5095376;28;20788;-65
2023/08/26 11:20:17;;;;;;;3.30;1.70;;;;;;;;;;5095889;28;21020;-64
2023/08/26 11:22:45;;;;;;;1.70;1.60;;;;;;;;;;5095525;28;20539;-64
2023/08/26 11:25:15;;;;;;;2.43;1.60;;;;;;;;;;5095463;28;20442;-65
2023/08/26 11:27:42;;;;;;;2.00;1.60;;;;;;;;;;5095113;28;20435;-65
2023/08/26 11:30:10;;;;;;;3.00;2.00;;;;;;;;;;5094990;28;20447;-64
2023/08/26 11:32:37;;;;;;;3.43;1.83;;;;;;;;;;5094710;28;20439;-65
2023/08/26 11:35:05;;;;;;;2.33;1.70;;;;;;;;;;5094726;28;20921;-65
2023/08/26 11:37:35;;;;;;;3.57;1.87;;;;;;;;;;5094943;28;20547;-65
2023/08/26 11:40:03;;;;;;;8.67;2.33;;;;;;;;;;5095089;28;21087;-64
2023/08/26 11:42:32;;;;;;;3.57;1.83;;;;;;;;;;5094951;28;20514;-65
2023/08/26 11:44:59;;;;;;;3.40;1.80;;;;;;;;;;5095079;28;20532;-64
2023/08/26 11:47:26;;;;;;;2.77;1.70;;;;;;;;;;5094859;28;20530;-64
2023/08/26 11:49:55;;;;;;;3.40;1.80;;;;;;;;;;5094992;28;20536;-64
2023/08/26 11:52:24;;;;;;;2.80;1.83;;;;;;;;;;5095100;28;20439;-64
2023/08/26 11:54:54;;;;;;;2.93;1.73;;;;;;;;;;5093179;28;20475;-65
2023/08/26 11:57:22;;;;;;;3.53;1.60;;;;;;;;;;5094482;28;20464;-65
2023/08/26 11:59:50;;;;;;;2.90;1.90;;;;;;;;;;5094764;28;20554;-64
2023/08/26 12:02:21;;;;;;;6.37;2.30;;;;;;;;;;5095037;28;20799;-65
2023/08/26 12:04:48;;;;;;;2.80;2.03;;;;;;;;;;5094839;28;20425;-65
2023/08/26 12:07:15;;;;;;;4.93;1.73;;;;;;;;;;5095145;28;20493;-65
2023/08/26 12:09:43;;;;;;;2.20;2.00;;;;;;;;;;5094727;28;20471;-66
2023/08/26 12:12:10;;;;;;;3.17;1.80;;;;;;;;;;5095045;28;20487;-65
2023/08/26 12:14:37;;;;;;;4.00;1.90;;;;;;;;;;5093478;28;20432;-66
2023/08/26 12:17:06;;;;;;;3.93;2.70;;;;;;;;;;5094629;28;20519;-64
2023/08/26 12:19:34;;;;;;;2.40;2.10;;;;;;;;;;5094454;28;20835;-65
2023/08/26 12:22:01;;;;;;;2.17;1.90;;;;;;;;;;5095038;28;20444;-65
2023/08/26 12:24:28;;;;;;;4.43;2.73;;;;;;;;;;5094122;28;20452;-65
2023/08/26 12:26:56;;;;;;;3.37;2.13;;;;;;;;;;5094689;28;20490;-65
2023/08/26 12:29:23;;;;;;;4.47;2.63;;;;;;;;;;5094270;28;20536;-65
2023/08/26 12:31:51;;;;;;;3.40;2.50;;;;;;;;;;5094889;28;20471;-64
2023/08/26 12:34:19;;;;;;;5.00;2.67;;;;;;;;;;5093833;28;20436;-66
2023/08/26 12:36:46;;;;;;;2.77;2.10;;;;;;;;;;5093876;28;20432;-64
2023/08/26 12:39:14;;;;;;;3.53;2.37;;;;;;;;;;5094381;28;20471;-65
2023/08/26 12:41:41;;;;;;;9.27;2.27;;;;;;;;;;5094591;28;20436;-65
2023/08/26 12:44:08;;;;;;;1.87;1.77;;;;;;;;;;5094501;28;20447;-65
2023/08/26 12:46:36;;;;;;;2.27;1.50;;;;;;;;;;5093761;28;21015;-65
2023/08/26 12:49:03;;;;;;;3.13;1.70;;;;;;;;;;5094125;28;20540;-64
2023/08/26 12:51:32;;;;;;;4.00;1.70;;;;;;;;;;5093682;28;20531;-65
2023/08/26 12:53:59;;;;;;;3.83;1.90;;;;;;;;;;5093824;28;20554;-65
2023/08/26 12:56:26;;;;;;;2.30;1.20;;;;;;;;;;5093923;28;20437;-65
2023/08/26 12:58:53;;;;;;;4.40;1.83;;;;;;;;;;5093279;28;20488;-65
2023/08/26 13:01:21;;;;;;;2.53;1.40;;;;;;;;;;5093855;28;20522;-64
2023/08/26 13:03:48;;;;;;;2.63;2.00;;;;;;;;;;5093577;28;20468;-65
2023/08/26 13:06:15;;;;;;;3.23;1.57;;;;;;;;;;5093489;28;20470;-65
2023/08/26 13:08:44;;;;;;;2.93;1.80;;;;;;;;;;5093618;28;20534;-66
2023/08/26 13:11:11;;;;;;;2.13;1.53;;;;;;;;;;5093670;28;20454;-65
2023/08/26 13:13:38;;;;;;;2.30;2.03;;;;;;;;;;5093156;28;20439;-66
2023/08/26 13:16:05;;;;;;;6.70;2.30;;;;;;;;;;5093113;28;20504;-66
2023/08/26 13:18:32;;;;;;;8.20;2.50;;;;;;;;;;5093261;28;20999;-67
2023/08/26 13:21:00;;;;;;;2.57;1.77;;;;;;;;;;5093484;28;20533;-66
2023/08/26 13:23:27;;;;;;;2.60;1.90;;;;;;;;;;5093550;28;20445;-65
2023/08/26 13:25:55;;;;;;;2.40;1.80;;;;;;;;;;5093140;28;20522;-66
2023/08/26 13:28:23;;;;;;;3.47;2.23;;;;;;;;;;5092827;28;20542;-65
2023/08/26 13:30:50;;;;;;;3.10;1.97;;;;;;;;;;5093254;28;20792;-63
2023/08/26 13:33:17;;;;;;;5.43;1.90;;;;;;;;;;5093260;28;20440;-63
2023/08/26 13:35:44;;;;;;;3.97;1.73;;;;;;;;;;5093072;28;20436;-65
2023/08/26 13:38:11;;;;;;;2.00;1.80;;;;;;;;;;5093256;28;20865;-63
2023/08/26 13:40:39;;;;;;;3.63;2.10;;;;;;;;;;5093223;28;20563;-63
2023/08/26 13:43:08;;;;;;;3.60;2.00;;;;;;;;;;5093299;28;20514;-63
2023/08/26 13:45:35;;;;;;;2.23;2.03;;;;;;;;;;5092665;28;20445;-63
2023/08/26 13:48:02;;;;;;;2.30;1.93;;;;;;;;;;5092775;28;20934;-63
2023/08/26 13:50:30;;;;;;;4.87;2.00;;;;;;;;;;5093021;28;20529;-63
2023/08/26 13:52:57;;;;;;;3.00;2.17;;;;;;;;;;5092468;28;20453;-63
2023/08/26 13:55:24;;;;;;;2.60;2.17;;;;;;;;;;5093072;28;20791;-63
2023/08/26 13:57:51;;;;;;;3.40;2.07;;;;;;;;;;5092932;28;20456;-63
2023/08/26 14:00:20;;;;;;;3.70;2.03;;;;;;;;;;5092757;28;20910;-63
2023/08/26 14:02:47;;;;;;;3.80;2.50;;;;;;;;;;5093016;28;20440;-64
2023/08/26 14:05:14;;;;;;;3.03;1.87;;;;;;;;;;5092675;28;20542;-64
2023/08/26 14:07:42;;;;;;;3.80;2.30;;;;;;;;;;5093069;28;20529;-63
2023/08/26 14:10:10;;;;;;;3.13;2.00;;;;;;;;;;5093058;28;20507;-64
2023/08/26 14:12:38;;;;;;;2.20;1.87;;;;;;;;;;5092872;28;20447;-64
2023/08/26 14:15:06;;;;;;;3.23;2.40;;;;;;;;;;5092422;28;20445;-64
2023/08/26 14:17:35;;;;;;;2.13;1.93;;;;;;;;;;5093060;28;20470;-64
2023/08/26 14:20:02;;;;;;;2.00;1.80;;;;;;;;;;5092745;28;20480;-65
2023/08/26 14:22:29;;;;;;;3.70;1.93;;;;;;;;;;5092585;28;20448;-64
2023/08/26 14:24:57;;;;;;;2.07;1.90;;;;;;;;;;5092421;28;20936;-65
2023/08/26 14:27:24;;;;;;;2.27;2.07;;;;;;;;;;5092800;28;20533;-64
2023/08/26 14:29:51;;;;;;;4.50;2.83;;;;;;;;;;5091499;28;20883;-64
2023/08/26 14:32:18;;;;;;;11.30;2.10;;;;;;;;;;5092003;28;20542;-65
2023/08/26 14:34:47;;;;;;;5.77;1.97;;;;;;;;;;5091630;28;20439;-64
2023/08/26 14:37:14;;;;;;;4.80;1.77;;;;;;;;;;5092720;28;20760;-64
2023/08/26 14:39:41;;;;;;;3.10;2.10;;;;;;;;;;5095688;28;20471;-65